createdAt,value
2023-03-18T00:00:11.627Z,97679.81
2023-03-18T00:02:39.425Z,97654.53
2023-03-18T00:05:07.697Z,97662.63
2023-03-18T00:07:36.231Z,97669.59
2023-03-18T00:10:04.538Z,97669.28
2023-03-18T00:12:32.378Z,97677.22
2023-03-18T00:15:00.481Z,97680.63
2023-03-18T00:17:26.952Z,97675.53
2023-03-18T00:19:53.838Z,97677.88
2023-03-18T00:22:20.499Z,97682.63
2023-03-18T00:24:48.916Z,97674.72
2023-03-18T00:27:15.889Z,97679.00
2023-03-18T00:29:43.119Z,97684.09
2023-03-18T00:32:09.851Z,97687.59
2023-03-18T00:34:36.368Z,97690.75
2023-03-18T00:37:04.392Z,97686.59
2023-03-18T00:39:32.956Z,97701.66
2023-03-18T00:42:02.125Z,97688.84
2023-03-18T00:44:28.898Z,97705.63
2023-03-18T00:46:55.465Z,97707.88
2023-03-18T00:49:22.127Z,97701.63
2023-03-18T00:51:48.654Z,97706.59
2023-03-18T00:54:18.543Z,97703.28
2023-03-18T00:56:45.411Z,97704.41
2023-03-18T00:59:11.976Z,97700.19
2023-03-18T01:01:39.313Z,97703.19
2023-03-18T01:04:07.223Z,97712.16
2023-03-18T01:06:37.345Z,97692.81
2023-03-18T01:09:05.699Z,97707.09
2023-03-18T01:11:33.303Z,97703.00
2023-03-18T01:14:00.498Z,97704.53
2023-03-18T01:16:27.614Z,97706.63
2023-03-18T01:18:54.641Z,97701.19
2023-03-18T01:21:22.262Z,97699.34
2023-03-18T01:23:53.618Z,97691.50
2023-03-18T01:26:20.472Z,97686.31
2023-03-18T01:28:47.998Z,97675.97
2023-03-18T01:31:15.501Z,97675.78
2023-03-18T01:33:44.368Z,97674.28
2023-03-18T01:36:11.768Z,97683.00
2023-03-18T01:38:38.435Z,97684.03
2023-03-18T01:41:11.123Z,97685.41
2023-03-18T01:43:41.018Z,97676.59
2023-03-18T01:46:47.449Z,97669.16
2023-03-18T01:49:22.452Z,97664.09
2023-03-18T01:51:59.645Z,97668.84
2023-03-18T01:54:28.742Z,97664.81
2023-03-18T01:56:56.708Z,97655.75
2023-03-18T01:59:26.446Z,97659.63
2023-03-18T02:01:59.152Z,97666.56
2023-03-18T02:04:31.102Z,97661.09
2023-03-18T02:06:59.154Z,97664.72
2023-03-18T02:09:25.768Z,97670.66
2023-03-18T02:11:52.944Z,97669.59
2023-03-18T02:14:25.648Z,97675.03
2023-03-18T02:17:06.145Z,97667.78
2023-03-18T02:19:52.823Z,97661.28
2023-03-18T02:22:39.527Z,97672.84
2023-03-18T02:25:21.894Z,97674.00
2023-03-18T02:28:03.841Z,97673.31
2023-03-18T02:30:43.660Z,97682.00
2023-03-18T02:33:14.873Z,97677.22
2023-03-18T02:35:44.772Z,97686.75
2023-03-18T02:38:11.461Z,97678.16
2023-03-18T02:40:40.674Z,97674.81
2023-03-18T02:43:24.624Z,97677.94
2023-03-18T02:46:31.180Z,97677.03
2023-03-18T02:49:04.590Z,97685.72
2023-03-18T02:51:31.269Z,97673.09
2023-03-18T02:54:03.245Z,97677.03
2023-03-18T02:56:30.106Z,97667.50
2023-03-18T02:58:57.773Z,97677.13
2023-03-18T03:01:25.713Z,97672.72
2023-03-18T03:03:52.275Z,97675.94
2023-03-18T03:06:19.123Z,97666.69
2023-03-18T03:08:45.998Z,97681.53
2023-03-18T03:11:12.773Z,97681.91
2023-03-18T03:13:41.823Z,97687.59
2023-03-18T03:16:10.788Z,97693.63
2023-03-18T03:18:37.698Z,97694.75
2023-03-18T03:21:05.152Z,97691.63
2023-03-18T03:23:32.451Z,97690.47
2023-03-18T03:25:59.112Z,97698.94
2023-03-18T03:28:27.032Z,97696.38
2023-03-18T03:30:55.695Z,97697.88
2023-03-18T03:33:22.865Z,97706.44
2023-03-18T03:35:49.668Z,97703.81
2023-03-18T03:38:16.641Z,97697.66
2023-03-18T03:40:44.912Z,97702.88
2023-03-18T03:43:13.073Z,97709.25
2023-03-18T03:45:40.663Z,97692.56
2023-03-18T03:48:08.201Z,97706.22
2023-03-18T03:50:37.100Z,97707.19
2023-03-18T03:53:04.761Z,97696.88
2023-03-18T03:55:31.667Z,97711.00
2023-03-18T03:57:58.126Z,97710.63
2023-03-18T04:00:26.594Z,97703.47
2023-03-18T04:02:54.083Z,97713.09
2023-03-18T04:05:24.536Z,97710.19
2023-03-18T04:07:52.381Z,97707.66
2023-03-18T04:10:24.132Z,97712.16
2023-03-18T04:12:50.894Z,97712.53
2023-03-18T04:15:19.646Z,97715.91
2023-03-18T04:17:49.886Z,97708.47
2023-03-18T04:20:18.667Z,97715.66
2023-03-18T04:22:46.068Z,97721.72
2023-03-18T04:25:14.803Z,97729.09
2023-03-18T04:27:41.736Z,97717.72
2023-03-18T04:30:12.514Z,97727.69
2023-03-18T04:32:54.953Z,97737.75
2023-03-18T04:35:23.344Z,97737.78
2023-03-18T04:37:50.632Z,97740.09
2023-03-18T04:40:18.240Z,97740.63
2023-03-18T04:42:47.669Z,97726.63
2023-03-18T04:45:16.562Z,97744.47
2023-03-18T04:47:44.273Z,97734.38
2023-03-18T04:50:12.373Z,97736.38
2023-03-18T04:52:40.680Z,97737.84
2023-03-18T04:55:09.477Z,97737.25
2023-03-18T04:57:38.658Z,97738.78
2023-03-18T05:00:12.202Z,97743.66
2023-03-18T05:02:40.994Z,97747.81
2023-03-18T05:05:11.439Z,97743.59
2023-03-18T05:07:44.108Z,97744.03
2023-03-18T05:10:14.120Z,97742.78
2023-03-18T05:12:41.951Z,97724.28
2023-03-18T05:15:12.120Z,97732.75
2023-03-18T05:17:43.692Z,97725.81
2023-03-18T05:20:13.299Z,97731.91
2023-03-18T05:22:40.222Z,97740.72
2023-03-18T05:25:14.782Z,97739.16
2023-03-18T05:27:41.993Z,97739.75
2023-03-18T05:30:15.992Z,97741.41
2023-03-18T05:32:47.398Z,97743.22
2023-03-18T05:35:14.233Z,97744.47
2023-03-18T05:37:47.700Z,97743.00
2023-03-18T05:40:14.834Z,97749.72
2023-03-18T05:42:55.793Z,97738.56
2023-03-18T05:45:30.812Z,97732.44
2023-03-18T05:47:58.079Z,97747.06
2023-03-18T05:50:34.312Z,97750.44
2023-03-18T05:53:05.440Z,97751.34
2023-03-18T05:55:36.591Z,97755.59
2023-03-18T05:58:03.959Z,97750.28
2023-03-18T06:00:33.044Z,97749.63
2023-03-18T06:03:01.746Z,97752.38
2023-03-18T06:05:30.038Z,97745.00
2023-03-18T06:07:57.520Z,97760.81
2023-03-18T06:10:25.163Z,97760.75
2023-03-18T06:12:52.631Z,97761.97
2023-03-18T06:15:21.150Z,97762.22
2023-03-18T06:17:48.746Z,97765.16
2023-03-18T06:20:16.458Z,97765.72
2023-03-18T06:22:48.833Z,97768.97
2023-03-18T06:25:20.946Z,97762.63
2023-03-18T06:27:48.886Z,97771.22
2023-03-18T06:30:18.478Z,97775.91
2023-03-18T06:32:45.146Z,97780.09
2023-03-18T06:35:12.780Z,97781.41
2023-03-18T06:37:40.009Z,97778.25
2023-03-18T06:40:10.496Z,97782.91
2023-03-18T06:42:37.549Z,97781.50
2023-03-18T06:45:15.167Z,97776.56
2023-03-18T06:47:50.519Z,97782.88
2023-03-18T06:50:17.524Z,97769.31
2023-03-18T06:52:44.006Z,97774.34
2023-03-18T06:55:15.707Z,97771.63
2023-03-18T06:57:45.613Z,97772.38
2023-03-18T07:00:16.255Z,97772.44
2023-03-18T07:02:43.330Z,97775.47
2023-03-18T07:05:12.733Z,97760.19
2023-03-18T07:07:40.667Z,97763.06
2023-03-18T07:10:09.509Z,97770.63
2023-03-18T07:12:36.074Z,97731.94
2023-03-18T07:15:04.223Z,97768.13
2023-03-18T07:17:30.897Z,97772.47
2023-03-18T07:19:58.066Z,97778.19
2023-03-18T07:22:24.661Z,97768.34
2023-03-18T07:24:52.318Z,97762.69
2023-03-18T07:27:20.622Z,97765.13
2023-03-18T07:29:47.228Z,97774.81
2023-03-18T07:32:13.995Z,97778.03
2023-03-18T07:34:42.512Z,97780.72
2023-03-18T07:37:09.072Z,97772.09
2023-03-18T07:39:35.518Z,97773.41
2023-03-18T07:42:02.107Z,97776.03
2023-03-18T07:44:30.209Z,97779.75
2023-03-18T07:46:57.361Z,97763.84
2023-03-18T07:49:24.023Z,97767.56
2023-03-18T07:51:50.741Z,97778.25
2023-03-18T07:54:17.970Z,97780.63
2023-03-18T07:56:44.573Z,97779.25
2023-03-18T07:59:12.326Z,97778.00
2023-03-18T08:02:53.597Z,97776.09
2023-03-18T08:05:21.998Z,97784.09
2023-03-18T08:07:48.669Z,97782.31
2023-03-18T08:32:49.264Z,97789.50
2023-03-18T08:35:15.728Z,97793.00
2023-03-18T08:37:42.529Z,97790.72
2023-03-18T08:43:25.880Z,97799.44
2023-03-18T08:45:55.829Z,97799.69
2023-03-18T08:48:23.450Z,97797.16
2023-03-18T08:50:49.909Z,97796.72
2023-03-18T08:53:16.780Z,97795.34
2023-03-18T08:55:43.566Z,97797.25
2023-03-18T08:58:10.359Z,97793.94
2023-03-18T09:00:39.095Z,97790.09
2023-03-18T09:03:05.684Z,97784.38
2023-03-18T09:05:32.895Z,97787.94
2023-03-18T09:08:00.349Z,97782.28
2023-03-18T09:10:30.756Z,97783.47
2023-03-18T09:13:22.488Z,97782.75
2023-03-18T09:17:45.324Z,97777.94
2023-03-18T09:20:17.417Z,97777.72
2023-03-18T09:22:46.448Z,97784.28
2023-03-18T09:25:13.484Z,97774.44
2023-03-18T09:27:39.932Z,97765.00
2023-03-18T09:30:08.086Z,97768.38
2023-03-18T09:32:34.606Z,97771.47
2023-03-18T09:35:01.570Z,97766.41
2023-03-18T09:37:28.039Z,97772.16
2023-03-18T09:39:54.578Z,97760.78
2023-03-18T09:42:51.318Z,97774.25
2023-03-18T09:45:46.948Z,97773.00
2023-03-18T09:48:31.892Z,97766.66
2023-03-18T09:51:10.244Z,97764.31
2023-03-18T09:53:50.108Z,97762.47
2023-03-18T09:56:22.706Z,97754.47
2023-03-18T09:59:00.821Z,97754.09
2023-03-18T10:01:28.992Z,97757.31
2023-03-18T10:04:11.390Z,97760.44
2023-03-18T10:06:42.922Z,97762.50
2023-03-18T10:09:24.383Z,97765.94
2023-03-18T10:11:53.913Z,97772.97
2023-03-18T10:14:26.474Z,97772.97
2023-03-18T10:17:05.776Z,97769.63
2023-03-18T10:19:34.842Z,97773.31
2023-03-18T10:22:32.200Z,97775.75
2023-03-18T10:25:12.550Z,97771.94
2023-03-18T10:27:49.193Z,97761.97
2023-03-18T10:30:45.039Z,97759.88
2023-03-18T10:33:27.774Z,97770.34
2023-03-18T10:36:13.300Z,97769.16
2023-03-18T10:38:44.787Z,97763.34
2023-03-18T10:41:15.810Z,97762.34
2023-03-18T10:43:43.036Z,97746.38
2023-03-18T10:46:14.440Z,97749.34
2023-03-18T10:49:04.553Z,97765.50
2023-03-18T10:51:50.043Z,97767.06
2023-03-18T10:54:32.881Z,97764.66
2023-03-18T10:56:59.361Z,97757.56
2023-03-18T10:59:28.540Z,97752.28
2023-03-18T11:02:04.692Z,97760.16
2023-03-18T11:04:38.908Z,97747.59
2023-03-18T11:07:12.827Z,97749.41
2023-03-18T11:09:42.226Z,97760.16
2023-03-18T11:12:19.318Z,97754.25
2023-03-18T11:14:50.163Z,97744.16
2023-03-18T11:17:28.106Z,97737.44
2023-03-18T11:20:25.614Z,97744.72
2023-03-18T11:22:55.607Z,97741.31
2023-03-18T11:25:26.468Z,97747.97
2023-03-18T11:27:59.465Z,97752.88
2023-03-18T11:30:34.321Z,97736.84
2023-03-18T11:33:12.651Z,97738.16
2023-03-18T11:35:46.243Z,97732.38
2023-03-18T11:38:29.409Z,97732.47
2023-03-18T11:41:07.078Z,97727.88
2023-03-18T11:43:33.560Z,97727.41
2023-03-18T11:46:03.346Z,97717.06
2023-03-18T11:48:39.295Z,97727.81
2023-03-18T11:51:30.452Z,97726.50
2023-03-18T11:54:15.760Z,97720.34
2023-03-18T11:56:49.636Z,97719.03
2023-03-18T11:59:40.495Z,97721.00
2023-03-18T12:02:31.992Z,97719.03
2023-03-18T12:05:32.538Z,97717.84
2023-03-18T12:08:18.917Z,97702.00
2023-03-18T12:10:57.243Z,97706.75
2023-03-18T12:14:09.930Z,97710.53
2023-03-18T12:17:06.391Z,97713.81
2023-03-18T12:19:35.629Z,97703.81
2023-03-18T12:22:50.518Z,97704.31
2023-03-18T12:25:34.537Z,97698.06
2023-03-18T12:28:13.658Z,97698.66
2023-03-18T12:30:49.063Z,97696.00
2023-03-18T12:33:21.932Z,97705.63
2023-03-18T12:35:58.701Z,97707.84
2023-03-18T12:38:56.706Z,97703.53
2023-03-18T12:41:42.129Z,97694.09
2023-03-18T12:44:17.294Z,97689.16
2023-03-18T12:47:00.467Z,97698.44
2023-03-18T12:49:37.515Z,97683.22
2023-03-18T12:52:33.398Z,97689.31
2023-03-18T12:55:16.172Z,97689.25
2023-03-18T12:57:48.621Z,97688.50
2023-03-18T13:00:30.109Z,97681.78
2023-03-18T13:03:06.909Z,97689.88
2023-03-18T13:05:43.632Z,97680.31
2023-03-18T13:08:41.912Z,97677.47
2023-03-18T13:11:20.077Z,97679.34
2023-03-18T13:13:52.145Z,97686.63
2023-03-18T13:16:21.626Z,97680.88
2023-03-18T13:18:53.041Z,97687.59
2023-03-18T13:21:23.182Z,97683.38
2023-03-18T13:23:56.253Z,97673.53
2023-03-18T13:27:00.240Z,97679.41
2023-03-18T13:29:45.976Z,97682.19
2023-03-18T13:32:12.425Z,97681.38
2023-03-18T13:34:56.689Z,97680.41
2023-03-18T13:37:36.141Z,97671.38
2023-03-18T13:40:20.654Z,97672.50
2023-03-18T13:42:49.220Z,97677.00
2023-03-18T13:45:33.812Z,97680.34
2023-03-18T13:48:06.152Z,97661.56
2023-03-18T13:50:35.001Z,97680.72
2023-03-18T13:53:03.168Z,97684.06
2023-03-18T13:55:42.085Z,97679.44
2023-03-18T13:58:19.377Z,97674.78
2023-03-18T14:01:23.898Z,97676.31
2023-03-18T14:03:50.292Z,97677.31
2023-03-18T14:06:16.645Z,97676.44
2023-03-18T14:08:43.140Z,97668.94
2023-03-18T14:11:25.832Z,97675.38
2023-03-18T14:13:54.135Z,97674.72
2023-03-18T14:16:29.742Z,97674.72
2023-03-18T14:19:10.100Z,97673.78
2023-03-18T14:21:48.206Z,97670.50
2023-03-18T14:24:17.689Z,97666.44
2023-03-18T14:26:59.535Z,97667.44
2023-03-18T14:29:31.147Z,97662.50
2023-03-18T14:32:00.393Z,97659.47
2023-03-18T14:34:33.987Z,97659.16
2023-03-18T14:37:19.210Z,97660.97
2023-03-18T14:39:51.474Z,97655.84
2023-03-18T14:42:44.040Z,97650.28
2023-03-18T14:45:23.514Z,97659.47
2023-03-18T14:47:51.342Z,97657.47
2023-03-18T14:50:30.118Z,97640.44
2023-03-18T14:53:08.663Z,97653.41
2023-03-18T14:55:37.474Z,97642.31
2023-03-18T14:58:04.321Z,97638.47
2023-03-18T15:00:35.461Z,97642.78
2023-03-18T15:03:26.570Z,97644.84
2023-03-18T15:05:58.695Z,97643.25
2023-03-18T15:08:44.615Z,97633.38
2023-03-18T15:11:13.238Z,97638.47
2023-03-18T15:13:42.306Z,97630.09
2023-03-18T15:16:16.723Z,97634.44
2023-03-18T15:18:43.664Z,97628.09
2023-03-18T15:21:17.893Z,97642.03
2023-03-18T15:23:53.975Z,97636.38
2023-03-18T15:26:38.574Z,97608.41
2023-03-18T15:29:43.713Z,97636.56
2023-03-18T15:32:19.191Z,97631.22
2023-03-18T15:34:53.006Z,97630.13
2023-03-18T15:37:39.981Z,97629.56
2023-03-18T15:40:28.917Z,97627.19
2023-03-18T15:42:57.980Z,97616.59
2023-03-18T15:45:28.102Z,97632.97
2023-03-18T15:47:55.364Z,97630.78
2023-03-18T15:50:25.976Z,97631.53
2023-03-18T15:53:06.228Z,97621.75
2023-03-18T15:55:50.979Z,97622.06
2023-03-18T15:58:34.052Z,97604.72
2023-03-18T16:01:00.894Z,97627.84
2023-03-18T16:03:31.227Z,97626.34
2023-03-18T16:05:58.262Z,97625.75
2023-03-18T16:08:25.311Z,97621.16
2023-03-18T16:10:55.845Z,97625.94
2023-03-18T16:13:29.379Z,97630.78
2023-03-18T16:15:56.706Z,97626.22
2023-03-18T16:18:23.156Z,97625.94
2023-03-18T16:20:50.275Z,97628.94
2023-03-18T16:23:17.540Z,97627.06
2023-03-18T16:25:47.061Z,97636.72
2023-03-18T16:28:23.344Z,97632.38
2023-03-18T16:30:52.385Z,97638.06
2023-03-18T16:33:20.032Z,97641.31
2023-03-18T16:35:54.502Z,97641.56
2023-03-18T16:38:20.958Z,97637.03
2023-03-18T16:40:47.370Z,97653.19
2023-03-18T16:43:31.183Z,97645.66
2023-03-18T16:46:00.637Z,97656.72
2023-03-18T16:48:27.735Z,97656.19
2023-03-18T16:50:55.510Z,97653.25
2023-03-18T16:53:29.525Z,97653.28
2023-03-18T16:56:16.530Z,97663.28
2023-03-18T16:58:44.433Z,97653.63
2023-03-18T17:01:16.475Z,97669.81
2023-03-18T17:03:44.133Z,97671.72
2023-03-18T17:06:10.730Z,97667.75
2023-03-18T17:08:37.735Z,97676.09
2023-03-18T17:11:04.852Z,97673.13
2023-03-18T17:13:34.860Z,97675.06
2023-03-18T17:16:01.733Z,97682.88
2023-03-18T17:18:28.228Z,97650.13
2023-03-18T17:20:54.833Z,97693.97
2023-03-18T17:23:28.839Z,97686.16
2023-03-18T17:25:59.263Z,97689.97
2023-03-18T17:28:39.184Z,97687.31
2023-03-18T17:31:06.617Z,97699.97
2023-03-18T17:33:35.434Z,97686.81
2023-03-18T17:36:02.216Z,97691.91
2023-03-18T17:38:30.975Z,97697.28
2023-03-18T17:40:58.730Z,97695.97
2023-03-18T17:43:28.712Z,97703.78
2023-03-18T17:45:56.809Z,97697.34
2023-03-18T17:48:25.584Z,97702.72
2023-03-18T17:50:58.485Z,97692.50
2023-03-18T17:53:28.015Z,97706.78
2023-03-18T17:55:54.984Z,97706.78
2023-03-18T17:58:24.565Z,97715.13
2023-03-18T18:00:53.802Z,97709.75
2023-03-18T18:03:24.325Z,97704.31
2023-03-18T18:05:51.454Z,97706.19
2023-03-18T18:08:19.080Z,97720.13
2023-03-18T18:10:45.836Z,97715.53
2023-03-18T18:13:15.250Z,97720.63
2023-03-18T18:15:43.347Z,97717.13
2023-03-18T18:18:23.212Z,97717.63
2023-03-18T18:20:54.264Z,97713.06
2023-03-18T18:23:28.824Z,97719.72
2023-03-18T18:25:57.722Z,97706.19
2023-03-18T18:28:29.308Z,97725.09
2023-03-18T18:30:55.867Z,97716.66
2023-03-18T18:33:22.349Z,97731.09
2023-03-18T18:35:48.857Z,97722.81
2023-03-18T18:38:15.644Z,97724.72
2023-03-18T18:40:42.514Z,97724.41
2023-03-18T18:43:09.075Z,97725.78
2023-03-18T18:45:36.195Z,97727.06
2023-03-18T18:48:03.547Z,97729.53
2023-03-18T18:50:35.503Z,97724.00
2023-03-18T18:53:02.596Z,97726.75
2023-03-18T18:55:28.996Z,97732.59
2023-03-18T18:57:56.057Z,97722.06
2023-03-18T19:00:23.602Z,97732.59
2023-03-18T19:02:53.247Z,97734.34
2023-03-18T19:05:19.961Z,97738.88
2023-03-18T19:07:46.522Z,97729.53
2023-03-18T19:10:15.107Z,97736.53
2023-03-18T19:12:44.177Z,97736.97
2023-03-18T19:15:13.449Z,97726.84
2023-03-18T19:17:43.271Z,97733.47
2023-03-18T19:20:25.052Z,97725.75
2023-03-18T19:22:53.047Z,97731.56
2023-03-18T19:25:19.697Z,97739.34
2023-03-18T19:27:46.638Z,97731.38
2023-03-18T19:30:21.438Z,97741.13
2023-03-18T19:32:48.915Z,97740.31
2023-03-18T19:35:15.615Z,97753.38
2023-03-18T19:37:44.332Z,97751.66
2023-03-18T19:40:23.664Z,97759.69
2023-03-18T19:42:50.402Z,97748.09
2023-03-18T19:45:17.815Z,97750.69
2023-03-18T19:47:45.967Z,97750.56
2023-03-18T19:50:17.446Z,97756.03
2023-03-18T19:52:44.140Z,97750.53
2023-03-18T19:55:15.666Z,97741.41
2023-03-18T19:57:48.069Z,97760.50
2023-03-18T20:00:23.602Z,97758.16
2023-03-18T20:02:50.827Z,97754.25
2023-03-18T20:05:22.411Z,97761.03
2023-03-18T20:07:50.349Z,97764.94
2023-03-18T20:10:18.705Z,97760.25
2023-03-18T20:12:47.490Z,97774.34
2023-03-18T20:15:20.312Z,97772.78
2023-03-18T20:17:48.789Z,97782.56
2023-03-18T20:20:17.861Z,97783.84
2023-03-18T20:22:48.216Z,97778.50
2023-03-18T20:25:24.342Z,97780.81
2023-03-18T20:27:53.446Z,97776.38
2023-03-18T20:30:23.082Z,97788.03
2023-03-18T20:32:49.647Z,97779.34
2023-03-18T20:35:16.812Z,97778.16
2023-03-18T20:37:43.578Z,97780.84
2023-03-18T20:40:20.833Z,97780.69
2023-03-18T20:42:47.441Z,97773.25
2023-03-18T20:45:15.790Z,97776.06
2023-03-18T20:47:43.890Z,97775.91
2023-03-18T20:50:22.664Z,97781.91
2023-03-18T20:52:49.145Z,97782.41
2023-03-18T20:55:20.164Z,97790.31
2023-03-18T20:57:46.871Z,97785.00
2023-03-18T21:00:18.848Z,97792.50
2023-03-18T21:02:47.119Z,97786.97
2023-03-18T21:05:14.591Z,97789.31
2023-03-18T21:07:41.643Z,97798.44
2023-03-18T21:10:09.419Z,97806.25
2023-03-18T21:12:36.697Z,97794.56
2023-03-18T21:15:03.935Z,97802.06
2023-03-18T21:17:30.569Z,97808.69
2023-03-18T21:20:05.021Z,97807.47
2023-03-18T21:22:38.008Z,97813.25
2023-03-18T21:25:06.091Z,97817.91
2023-03-18T21:27:34.131Z,97822.97
2023-03-18T21:30:01.882Z,97816.84
2023-03-18T21:32:33.216Z,97797.63
2023-03-18T21:34:59.735Z,97808.41
2023-03-18T21:37:27.300Z,97804.25
2023-03-18T21:40:19.606Z,97811.66
2023-03-18T21:47:43.312Z,97805.25
2023-03-18T21:50:30.330Z,97814.41
2023-03-18T21:52:57.419Z,97811.53
2023-03-18T21:55:23.837Z,97805.63
2023-03-18T21:57:50.379Z,97806.09
2023-03-18T22:00:20.026Z,97799.59
2023-03-18T22:02:47.403Z,97803.31
2023-03-18T22:05:20.400Z,97807.69
2023-03-18T22:07:47.611Z,97805.16
2023-03-18T22:10:19.857Z,97807.75
2023-03-18T22:12:46.712Z,97790.06
2023-03-18T22:15:35.746Z,97806.53
2023-03-18T22:18:02.712Z,97795.44
2023-03-18T22:20:29.374Z,97799.81
2023-03-18T22:22:55.992Z,97803.53
2023-03-18T22:25:31.713Z,97807.03
2023-03-18T22:27:59.342Z,97807.72
2023-03-18T22:30:27.424Z,97801.81
2023-03-18T22:32:54.756Z,97811.91
2023-03-18T22:35:25.452Z,97805.16
2023-03-18T22:37:52.362Z,97816.16
2023-03-18T22:40:28.107Z,97818.13
2023-03-18T22:43:01.681Z,97817.69
2023-03-18T22:45:30.475Z,97825.78
2023-03-18T22:47:59.261Z,97816.38
2023-03-18T22:50:27.971Z,97820.78
2023-03-18T22:53:00.607Z,97830.53
2023-03-18T22:55:31.927Z,97823.78
2023-03-18T22:57:58.595Z,97827.28
2023-03-18T23:00:33.458Z,97828.31
2023-03-18T23:03:00.015Z,97827.41
2023-03-18T23:05:27.207Z,97823.47
2023-03-18T23:07:54.138Z,97829.00
2023-03-18T23:10:21.357Z,97830.97
2023-03-18T23:12:48.160Z,97825.88
2023-03-18T23:15:20.716Z,97827.72
2023-03-18T23:17:47.705Z,97828.09
2023-03-18T23:20:16.665Z,97819.16
2023-03-18T23:22:43.854Z,97824.38
2023-03-18T23:25:16.461Z,97832.25
2023-03-18T23:27:43.391Z,97828.19
2023-03-18T23:30:12.374Z,97830.19
2023-03-18T23:32:40.395Z,97839.22
2023-03-18T23:35:08.875Z,97844.41
2023-03-18T23:37:35.708Z,97840.47
2023-03-18T23:40:03.055Z,97826.66
2023-03-18T23:42:29.484Z,97840.91
2023-03-18T23:44:55.940Z,97844.72
2023-03-18T23:47:22.402Z,97842.63
2023-03-18T23:49:48.898Z,97839.84
2023-03-18T23:52:15.905Z,97843.09
2023-03-18T23:54:42.405Z,97843.88
2023-03-18T23:57:10.150Z,97833.34
2023-03-18T23:59:37.519Z,97845.00
